sensor_id;sensor_type;location;lat;lon;timestamp;P1;durP1;ratioP1;P2;durP2;ratioP2
31306;SDS011;17935;51.120;13.132;2023-07-22T05:12:23;9.43;;;2.85;;
31306;SDS011;17935;51.120;13.132;2023-07-22T06:18:03;8.00;;;4.15;;
31306;SDS011;17935;51.120;13.132;2023-07-22T06:20:33;4.80;;;3.22;;
31306;SDS011;17935;51.120;13.132;2023-07-22T06:22:59;9.27;;;4.50;;
31306;SDS011;17935;51.120;13.132;2023-07-22T06:25:25;8.85;;;4.30;;
31306;SDS011;17935;51.120;13.132;2023-07-22T06:27:51;10.75;;;3.05;;
31306;SDS011;17935;51.120;13.132;2023-07-22T06:30:19;5.20;;;3.25;;
31306;SDS011;17935;51.120;13.132;2023-07-22T06:32:45;6.28;;;3.70;;
31306;SDS011;17935;51.120;13.132;2023-07-22T06:35:11;5.53;;;4.13;;
31306;SDS011;17935;51.120;13.132;2023-07-22T06:37:37;8.10;;;3.90;;
31306;SDS011;17935;51.120;13.132;2023-07-22T06:40:04;5.47;;;3.72;;
31306;SDS011;17935;51.120;13.132;2023-07-22T06:42:30;6.22;;;4.28;;
31306;SDS011;17935;51.120;13.132;2023-07-22T06:44:56;5.68;;;4.50;;
31306;SDS011;17935;51.120;13.132;2023-07-22T06:47:22;5.78;;;3.95;;
31306;SDS011;17935;51.120;13.132;2023-07-22T06:49:48;13.77;;;4.95;;
31306;SDS011;17935;51.120;13.132;2023-07-22T06:52:15;7.10;;;4.32;;
31306;SDS011;17935;51.120;13.132;2023-07-22T06:54:41;7.15;;;4.93;;
31306;SDS011;17935;51.120;13.132;2023-07-22T06:57:07;7.05;;;4.40;;
31306;SDS011;17935;51.120;13.132;2023-07-22T06:59:33;12.80;;;5.35;;
31306;SDS011;17935;51.120;13.132;2023-07-22T07:01:59;6.47;;;5.38;;
31306;SDS011;17935;51.120;13.132;2023-07-22T07:04:26;8.52;;;5.30;;
31306;SDS011;17935;51.120;13.132;2023-07-22T07:06:52;6.95;;;4.80;;
31306;SDS011;17935;51.120;13.132;2023-07-22T07:09:18;8.15;;;4.70;;
31306;SDS011;17935;51.120;13.132;2023-07-22T07:11:44;5.47;;;4.35;;
31306;SDS011;17935;51.120;13.132;2023-07-22T07:14:10;9.02;;;4.10;;
31306;SDS011;17935;51.120;13.132;2023-07-22T07:16:36;7.53;;;4.22;;
31306;SDS011;17935;51.120;13.132;2023-07-22T07:19:02;8.65;;;4.20;;
31306;SDS011;17935;51.120;13.132;2023-07-22T07:21:28;8.18;;;4.10;;
31306;SDS011;17935;51.120;13.132;2023-07-22T07:23:54;6.45;;;4.10;;
31306;SDS011;17935;51.120;13.132;2023-07-22T07:26:21;5.47;;;3.50;;
31306;SDS011;17935;51.120;13.132;2023-07-22T07:28:47;5.55;;;3.80;;
31306;SDS011;17935;51.120;13.132;2023-07-22T07:31:14;5.68;;;4.00;;
31306;SDS011;17935;51.120;13.132;2023-07-22T07:33:40;6.95;;;4.38;;
31306;SDS011;17935;51.120;13.132;2023-07-22T07:36:05;5.72;;;3.75;;
31306;SDS011;17935;51.120;13.132;2023-07-22T07:38:32;8.40;;;3.65;;
31306;SDS011;17935;51.120;13.132;2023-07-22T07:41:05;4.97;;;3.70;;
31306;SDS011;17935;51.120;13.132;2023-07-22T07:43:36;7.93;;;3.20;;
31306;SDS011;17935;51.120;13.132;2023-07-22T07:48:42;3.35;;;2.88;;
31306;SDS011;17935;51.120;13.132;2023-07-22T07:51:08;7.13;;;3.60;;
31306;SDS011;17935;51.120;13.132;2023-07-22T07:53:34;5.97;;;4.05;;
31306;SDS011;17935;51.120;13.132;2023-07-22T07:56:00;4.20;;;3.33;;
31306;SDS011;17935;51.120;13.132;2023-07-22T07:58:26;3.47;;;2.95;;
31306;SDS011;17935;51.120;13.132;2023-07-22T08:00:52;10.32;;;3.45;;
31306;SDS011;17935;51.120;13.132;2023-07-22T08:03:18;5.32;;;3.28;;
31306;SDS011;17935;51.120;13.132;2023-07-22T08:10:36;6.27;;;3.17;;
31306;SDS011;17935;51.120;13.132;2023-07-22T08:13:04;6.13;;;3.88;;
31306;SDS011;17935;51.120;13.132;2023-07-22T08:15:33;9.65;;;3.28;;
31306;SDS011;17935;51.120;13.132;2023-07-22T08:17:59;7.30;;;3.45;;
31306;SDS011;17935;51.120;13.132;2023-07-22T08:20:25;5.82;;;3.50;;
31306;SDS011;17935;51.120;13.132;2023-07-22T08:22:51;4.65;;;2.85;;
31306;SDS011;17935;51.120;13.132;2023-07-22T08:25:17;3.97;;;3.10;;
31306;SDS011;17935;51.120;13.132;2023-07-22T08:27:43;5.75;;;2.80;;
31306;SDS011;17935;51.120;13.132;2023-07-22T08:30:10;4.60;;;2.92;;
31306;SDS011;17935;51.120;13.132;2023-07-22T08:32:36;4.43;;;3.45;;
31306;SDS011;17935;51.120;13.132;2023-07-22T08:35:02;4.25;;;3.40;;
31306;SDS011;17935;51.120;13.132;2023-07-22T08:37:30;5.72;;;2.97;;
31306;SDS011;17935;51.120;13.132;2023-07-22T08:39:56;3.03;;;2.70;;
31306;SDS011;17935;51.120;13.132;2023-07-22T08:42:22;4.07;;;3.00;;
31306;SDS011;17935;51.120;13.132;2023-07-22T08:44:49;4.55;;;3.30;;
31306;SDS011;17935;51.120;13.132;2023-07-22T08:47:17;3.65;;;2.92;;
31306;SDS011;17935;51.120;13.132;2023-07-22T08:49:46;4.45;;;3.13;;
31306;SDS011;17935;51.120;13.132;2023-07-22T08:52:15;3.92;;;2.80;;
31306;SDS011;17935;51.120;13.132;2023-07-22T08:54:42;4.55;;;3.03;;
31306;SDS011;17935;51.120;13.132;2023-07-22T08:57:08;3.28;;;2.78;;
31306;SDS011;17935;51.120;13.132;2023-07-22T08:59:34;5.15;;;3.15;;
31306;SDS011;17935;51.120;13.132;2023-07-22T09:02:01;3.45;;;2.67;;
31306;SDS011;17935;51.120;13.132;2023-07-22T09:04:27;5.20;;;3.45;;
31306;SDS011;17935;51.120;13.132;2023-07-22T09:06:53;3.70;;;2.53;;
31306;SDS011;17935;51.120;13.132;2023-07-22T09:09:20;7.22;;;3.03;;
31306;SDS011;17935;51.120;13.132;2023-07-22T09:11:47;6.60;;;2.60;;
31306;SDS011;17935;51.120;13.132;2023-07-22T09:14:14;4.47;;;2.45;;
31306;SDS011;17935;51.120;13.132;2023-07-22T09:16:41;6.43;;;2.60;;
31306;SDS011;17935;51.120;13.132;2023-07-22T09:19:07;5.15;;;2.38;;
31306;SDS011;17935;51.120;13.132;2023-07-22T09:21:33;4.60;;;2.17;;
31306;SDS011;17935;51.120;13.132;2023-07-22T09:24:01;2.75;;;2.15;;
31306;SDS011;17935;51.120;13.132;2023-07-22T09:26:32;3.05;;;2.75;;
31306;SDS011;17935;51.120;13.132;2023-07-22T09:28:58;4.00;;;2.70;;
31306;SDS011;17935;51.120;13.132;2023-07-22T09:31:25;3.70;;;2.90;;
31306;SDS011;17935;51.120;13.132;2023-07-22T09:33:53;3.97;;;2.97;;
31306;SDS011;17935;51.120;13.132;2023-07-22T09:36:19;6.45;;;3.47;;
31306;SDS011;17935;51.120;13.132;2023-07-22T09:38:57;5.57;;;3.10;;
31306;SDS011;17935;51.120;13.132;2023-07-22T09:41:27;8.07;;;3.17;;
31306;SDS011;17935;51.120;13.132;2023-07-22T09:43:53;5.00;;;3.25;;
31306;SDS011;17935;51.120;13.132;2023-07-22T09:46:19;7.93;;;3.33;;
31306;SDS011;17935;51.120;13.132;2023-07-22T09:48:45;5.07;;;3.67;;
31306;SDS011;17935;51.120;13.132;2023-07-22T09:51:12;3.95;;;3.15;;
31306;SDS011;17935;51.120;13.132;2023-07-22T09:53:43;4.65;;;3.58;;
31306;SDS011;17935;51.120;13.132;2023-07-22T09:56:09;6.03;;;2.90;;
31306;SDS011;17935;51.120;13.132;2023-07-22T09:58:35;6.35;;;3.47;;
31306;SDS011;17935;51.120;13.132;2023-07-22T10:01:02;9.75;;;3.10;;
31306;SDS011;17935;51.120;13.132;2023-07-22T10:03:28;4.38;;;3.38;;
31306;SDS011;17935;51.120;13.132;2023-07-22T10:05:55;5.32;;;3.78;;
31306;SDS011;17935;51.120;13.132;2023-07-22T10:08:23;3.88;;;3.53;;
31306;SDS011;17935;51.120;13.132;2023-07-22T10:10:51;4.65;;;3.25;;
31306;SDS011;17935;51.120;13.132;2023-07-22T10:13:19;6.20;;;3.97;;
31306;SDS011;17935;51.120;13.132;2023-07-22T10:15:45;5.55;;;3.28;;
31306;SDS011;17935;51.120;13.132;2023-07-22T10:18:11;5.45;;;3.75;;
31306;SDS011;17935;51.120;13.132;2023-07-22T10:20:37;6.97;;;4.00;;
31306;SDS011;17935;51.120;13.132;2023-07-22T10:23:04;4.82;;;3.40;;
31306;SDS011;17935;51.120;13.132;2023-07-22T10:25:36;6.20;;;3.65;;
31306;SDS011;17935;51.120;13.132;2023-07-22T10:28:02;5.90;;;3.50;;
31306;SDS011;17935;51.120;13.132;2023-07-22T10:30:29;6.03;;;3.53;;
31306;SDS011;17935;51.120;13.132;2023-07-22T10:32:55;5.35;;;3.20;;
31306;SDS011;17935;51.120;13.132;2023-07-22T10:37:49;5.72;;;3.50;;
31306;SDS011;17935;51.120;13.132;2023-07-22T10:42:51;4.38;;;3.35;;
31306;SDS011;17935;51.120;13.132;2023-07-22T10:47:43;5.65;;;3.17;;
31306;SDS011;17935;51.120;13.132;2023-07-22T10:50:26;5.60;;;3.95;;
31306;SDS011;17935;51.120;13.132;2023-07-22T10:53:03;3.58;;;2.92;;
31306;SDS011;17935;51.120;13.132;2023-07-22T10:55:29;3.53;;;3.22;;
31306;SDS011;17935;51.120;13.132;2023-07-22T10:58:01;7.65;;;3.47;;
31306;SDS011;17935;51.120;13.132;2023-07-22T11:03:10;4.65;;;2.83;;
31306;SDS011;17935;51.120;13.132;2023-07-22T11:05:53;4.50;;;3.20;;
31306;SDS011;17935;51.120;13.132;2023-07-22T11:08:36;5.97;;;3.33;;
31306;SDS011;17935;51.120;13.132;2023-07-22T11:11:03;3.88;;;3.13;;
31306;SDS011;17935;51.120;13.132;2023-07-22T11:13:29;3.38;;;3.08;;
31306;SDS011;17935;51.120;13.132;2023-07-22T11:15:57;4.68;;;3.38;;
31306;SDS011;17935;51.120;13.132;2023-07-22T11:18:35;9.35;;;3.28;;
31306;SDS011;17935;51.120;13.132;2023-07-22T11:21:01;3.05;;;2.75;;
31306;SDS011;17935;51.120;13.132;2023-07-22T11:23:27;3.60;;;3.00;;
31306;SDS011;17935;51.120;13.132;2023-07-22T11:25:53;4.63;;;2.75;;
31306;SDS011;17935;51.120;13.132;2023-07-22T11:28:19;3.00;;;2.53;;
31306;SDS011;17935;51.120;13.132;2023-07-22T11:30:45;3.10;;;2.78;;
31306;SDS011;17935;51.120;13.132;2023-07-22T11:33:11;2.95;;;2.50;;
31306;SDS011;17935;51.120;13.132;2023-07-22T11:35:37;7.88;;;2.92;;
31306;SDS011;17935;51.120;13.132;2023-07-22T11:38:08;4.03;;;2.70;;
31306;SDS011;17935;51.120;13.132;2023-07-22T11:40:37;6.32;;;2.40;;
31306;SDS011;17935;51.120;13.132;2023-07-22T11:43:03;3.38;;;2.38;;
31306;SDS011;17935;51.120;13.132;2023-07-22T11:45:29;2.80;;;2.53;;
31306;SDS011;17935;51.120;13.132;2023-07-22T11:47:55;3.00;;;2.53;;
31306;SDS011;17935;51.120;13.132;2023-07-22T11:50:31;5.55;;;2.72;;
31306;SDS011;17935;51.120;13.132;2023-07-22T11:52:57;8.10;;;2.75;;
31306;SDS011;17935;51.120;13.132;2023-07-22T11:55:23;3.70;;;2.42;;
31306;SDS011;17935;51.120;13.132;2023-07-22T11:57:52;2.50;;;2.30;;
31306;SDS011;17935;51.120;13.132;2023-07-22T12:00:19;3.50;;;2.97;;
31306;SDS011;17935;51.120;13.132;2023-07-22T12:02:45;3.08;;;2.22;;
31306;SDS011;17935;51.120;13.132;2023-07-22T12:05:12;4.13;;;2.30;;
31306;SDS011;17935;51.120;13.132;2023-07-22T12:07:38;5.30;;;2.53;;
31306;SDS011;17935;51.120;13.132;2023-07-22T12:10:06;3.28;;;2.65;;
31306;SDS011;17935;51.120;13.132;2023-07-22T12:12:36;8.95;;;2.60;;
31306;SDS011;17935;51.120;13.132;2023-07-22T12:15:09;3.13;;;2.67;;
31306;SDS011;17935;51.120;13.132;2023-07-22T12:17:58;3.47;;;3.00;;
31306;SDS011;17935;51.120;13.132;2023-07-22T12:20:25;5.38;;;2.88;;
31306;SDS011;17935;51.120;13.132;2023-07-22T12:23:06;10.13;;;3.88;;
31306;SDS011;17935;51.120;13.132;2023-07-22T12:25:35;4.20;;;3.05;;
31306;SDS011;17935;51.120;13.132;2023-07-22T12:28:04;3.67;;;2.95;;
31306;SDS011;17935;51.120;13.132;2023-07-22T12:30:31;4.38;;;2.63;;
31306;SDS011;17935;51.120;13.132;2023-07-22T12:32:57;4.90;;;2.70;;
31306;SDS011;17935;51.120;13.132;2023-07-22T12:35:32;3.25;;;2.80;;
31306;SDS011;17935;51.120;13.132;2023-07-22T12:38:02;3.92;;;3.00;;
31306;SDS011;17935;51.120;13.132;2023-07-22T12:40:28;4.88;;;3.45;;
31306;SDS011;17935;51.120;13.132;2023-07-22T12:49:34;4.75;;;3.10;;
31306;SDS011;17935;51.120;13.132;2023-07-22T12:52:40;4.95;;;2.50;;
31306;SDS011;17935;51.120;13.132;2023-07-22T13:02:14;2.63;;;2.42;;
31306;SDS011;17935;51.120;13.132;2023-07-22T13:08:08;7.28;;;3.00;;
31306;SDS011;17935;51.120;13.132;2023-07-22T13:10:34;110.38;;;10.80;;
31306;SDS011;17935;51.120;13.132;2023-07-22T13:13:03;7.82;;;3.58;;
31306;SDS011;17935;51.120;13.132;2023-07-22T13:15:30;5.88;;;3.45;;
31306;SDS011;17935;51.120;13.132;2023-07-22T13:17:56;13.60;;;5.10;;
31306;SDS011;17935;51.120;13.132;2023-07-22T13:20:22;5.05;;;3.05;;
31306;SDS011;17935;51.120;13.132;2023-07-22T13:22:48;10.45;;;3.90;;
31306;SDS011;17935;51.120;13.132;2023-07-22T13:25:14;5.45;;;3.55;;
31306;SDS011;17935;51.120;13.132;2023-07-22T13:27:40;16.67;;;3.15;;
31306;SDS011;17935;51.120;13.132;2023-07-22T13:30:06;4.15;;;3.33;;
31306;SDS011;17935;51.120;13.132;2023-07-22T13:32:33;6.97;;;3.92;;
31306;SDS011;17935;51.120;13.132;2023-07-22T13:34:59;6.05;;;3.10;;
31306;SDS011;17935;51.120;13.132;2023-07-22T13:37:25;15.98;;;4.22;;
31306;SDS011;17935;51.120;13.132;2023-07-22T13:39:51;4.07;;;3.10;;
31306;SDS011;17935;51.120;13.132;2023-07-22T13:42:18;6.15;;;3.38;;
31306;SDS011;17935;51.120;13.132;2023-07-22T13:44:44;3.20;;;2.90;;
31306;SDS011;17935;51.120;13.132;2023-07-22T13:47:10;4.28;;;3.03;;
31306;SDS011;17935;51.120;13.132;2023-07-22T13:49:36;5.40;;;3.22;;
31306;SDS011;17935;51.120;13.132;2023-07-22T13:52:03;5.20;;;3.15;;
31306;SDS011;17935;51.120;13.132;2023-07-22T13:54:29;3.95;;;3.08;;
31306;SDS011;17935;51.120;13.132;2023-07-22T13:56:55;4.30;;;3.30;;
31306;SDS011;17935;51.120;13.132;2023-07-22T13:59:21;9.85;;;3.38;;
31306;SDS011;17935;51.120;13.132;2023-07-22T14:01:47;5.13;;;3.50;;
31306;SDS011;17935;51.120;13.132;2023-07-22T14:04:13;8.07;;;3.88;;
31306;SDS011;17935;51.120;13.132;2023-07-22T14:06:39;4.28;;;3.35;;
31306;SDS011;17935;51.120;13.132;2023-07-22T14:09:05;5.82;;;3.70;;
31306;SDS011;17935;51.120;13.132;2023-07-22T14:11:31;5.22;;;2.90;;
31306;SDS011;17935;51.120;13.132;2023-07-22T14:13:57;3.17;;;2.88;;
31306;SDS011;17935;51.120;13.132;2023-07-22T14:16:23;4.22;;;3.65;;
31306;SDS011;17935;51.120;13.132;2023-07-22T14:18:49;5.45;;;3.55;;
31306;SDS011;17935;51.120;13.132;2023-07-22T14:21:16;7.88;;;3.47;;
31306;SDS011;17935;51.120;13.132;2023-07-22T14:23:42;4.40;;;3.65;;
31306;SDS011;17935;51.120;13.132;2023-07-22T14:26:08;7.38;;;3.60;;
31306;SDS011;17935;51.120;13.132;2023-07-22T14:28:34;9.13;;;4.47;;
31306;SDS011;17935;51.120;13.132;2023-07-22T14:31:01;5.68;;;3.97;;
31306;SDS011;17935;51.120;13.132;2023-07-22T14:33:27;3.40;;;2.92;;
31306;SDS011;17935;51.120;13.132;2023-07-22T14:35:53;4.78;;;3.20;;
31306;SDS011;17935;51.120;13.132;2023-07-22T14:38:19;4.28;;;3.08;;
31306;SDS011;17935;51.120;13.132;2023-07-22T14:40:45;3.63;;;2.97;;
31306;SDS011;17935;51.120;13.132;2023-07-22T14:43:11;5.28;;;3.40;;
31306;SDS011;17935;51.120;13.132;2023-07-22T14:45:37;8.52;;;3.72;;
31306;SDS011;17935;51.120;13.132;2023-07-22T14:48:03;3.40;;;3.03;;
31306;SDS011;17935;51.120;13.132;2023-07-22T14:50:30;4.35;;;3.40;;
31306;SDS011;17935;51.120;13.132;2023-07-22T14:52:56;6.28;;;3.97;;
31306;SDS011;17935;51.120;13.132;2023-07-22T14:55:22;5.70;;;3.83;;
31306;SDS011;17935;51.120;13.132;2023-07-22T14:57:48;6.88;;;3.10;;
31306;SDS011;17935;51.120;13.132;2023-07-22T15:00:14;3.97;;;2.92;;
31306;SDS011;17935;51.120;13.132;2023-07-22T15:02:40;4.00;;;3.20;;
31306;SDS011;17935;51.120;13.132;2023-07-22T15:05:06;6.53;;;3.78;;
31306;SDS011;17935;51.120;13.132;2023-07-22T15:07:33;5.93;;;3.60;;
31306;SDS011;17935;51.120;13.132;2023-07-22T15:09:59;4.28;;;3.03;;
31306;SDS011;17935;51.120;13.132;2023-07-22T15:12:25;4.05;;;3.53;;
31306;SDS011;17935;51.120;13.132;2023-07-22T15:14:51;5.55;;;4.00;;
31306;SDS011;17935;51.120;13.132;2023-07-22T15:17:17;6.47;;;3.35;;
31306;SDS011;17935;51.120;13.132;2023-07-22T15:19:44;7.55;;;3.00;;
31306;SDS011;17935;51.120;13.132;2023-07-22T15:22:10;3.25;;;2.95;;
31306;SDS011;17935;51.120;13.132;2023-07-22T15:24:36;4.45;;;3.03;;
31306;SDS011;17935;51.120;13.132;2023-07-22T15:27:03;4.88;;;4.28;;
31306;SDS011;17935;51.120;13.132;2023-07-22T15:29:29;3.50;;;2.85;;
31306;SDS011;17935;51.120;13.132;2023-07-22T15:31:55;4.72;;;3.47;;
31306;SDS011;17935;51.120;13.132;2023-07-22T15:34:21;12.23;;;3.40;;
31306;SDS011;17935;51.120;13.132;2023-07-22T15:36:47;4.03;;;3.50;;
31306;SDS011;17935;51.120;13.132;2023-07-22T15:39:13;5.57;;;3.35;;
31306;SDS011;17935;51.120;13.132;2023-07-22T15:41:40;7.55;;;3.97;;
31306;SDS011;17935;51.120;13.132;2023-07-22T15:44:05;6.35;;;3.70;;
31306;SDS011;17935;51.120;13.132;2023-07-22T15:46:32;4.18;;;3.42;;
31306;SDS011;17935;51.120;13.132;2023-07-22T15:48:58;3.45;;;2.95;;
31306;SDS011;17935;51.120;13.132;2023-07-22T15:51:24;5.25;;;3.20;;
31306;SDS011;17935;51.120;13.132;2023-07-22T15:53:50;4.55;;;3.72;;
31306;SDS011;17935;51.120;13.132;2023-07-22T15:56:16;4.38;;;3.28;;
31306;SDS011;17935;51.120;13.132;2023-07-22T15:58:42;4.18;;;3.78;;
31306;SDS011;17935;51.120;13.132;2023-07-22T16:01:08;5.22;;;4.00;;
31306;SDS011;17935;51.120;13.132;2023-07-22T16:03:34;6.57;;;5.88;;
31306;SDS011;17935;51.120;13.132;2023-07-22T16:06:01;4.30;;;3.90;;
31306;SDS011;17935;51.120;13.132;2023-07-22T16:08:27;5.55;;;4.03;;
31306;SDS011;17935;51.120;13.132;2023-07-22T16:10:57;4.97;;;4.07;;
31306;SDS011;17935;51.120;13.132;2023-07-22T16:13:23;4.93;;;3.83;;
31306;SDS011;17935;51.120;13.132;2023-07-22T16:15:49;9.23;;;4.03;;
31306;SDS011;17935;51.120;13.132;2023-07-22T16:18:15;13.40;;;6.75;;
31306;SDS011;17935;51.120;13.132;2023-07-22T16:20:44;15.82;;;8.90;;
31306;SDS011;17935;51.120;13.132;2023-07-22T16:23:10;5.47;;;4.60;;
31306;SDS011;17935;51.120;13.132;2023-07-22T16:25:37;5.63;;;3.90;;
31306;SDS011;17935;51.120;13.132;2023-07-22T16:28:03;5.25;;;4.18;;
31306;SDS011;17935;51.120;13.132;2023-07-22T16:30:29;4.40;;;3.83;;
31306;SDS011;17935;51.120;13.132;2023-07-22T16:32:55;7.90;;;3.97;;
31306;SDS011;17935;51.120;13.132;2023-07-22T16:35:21;4.07;;;3.67;;
31306;SDS011;17935;51.120;13.132;2023-07-22T16:37:47;4.78;;;3.75;;
31306;SDS011;17935;51.120;13.132;2023-07-22T16:40:13;3.38;;;3.08;;
31306;SDS011;17935;51.120;13.132;2023-07-22T16:42:39;4.40;;;3.50;;
31306;SDS011;17935;51.120;13.132;2023-07-22T16:45:05;4.53;;;3.50;;
31306;SDS011;17935;51.120;13.132;2023-07-22T16:47:32;6.35;;;3.65;;
31306;SDS011;17935;51.120;13.132;2023-07-22T16:49:58;5.20;;;3.53;;
31306;SDS011;17935;51.120;13.132;2023-07-22T16:52:24;8.60;;;3.88;;
31306;SDS011;17935;51.120;13.132;2023-07-22T16:54:50;6.53;;;4.00;;
31306;SDS011;17935;51.120;13.132;2023-07-22T16:57:16;6.90;;;3.75;;
31306;SDS011;17935;51.120;13.132;2023-07-22T16:59:43;5.25;;;3.78;;
31306;SDS011;17935;51.120;13.132;2023-07-22T17:05:21;4.32;;;3.53;;
31306;SDS011;17935;51.120;13.132;2023-07-22T17:11:10;5.80;;;3.78;;
31306;SDS011;17935;51.120;13.132;2023-07-22T17:26:04;4.47;;;3.85;;
31306;SDS011;17935;51.120;13.132;2023-07-22T17:44:14;9.85;;;5.95;;
31306;SDS011;17935;51.120;13.132;2023-07-22T17:46:40;9.88;;;4.95;;
31306;SDS011;17935;51.120;13.132;2023-07-22T17:49:06;5.68;;;4.30;;
31306;SDS011;17935;51.120;13.132;2023-07-22T17:51:32;4.25;;;3.85;;
31306;SDS011;17935;51.120;13.132;2023-07-22T17:53:58;6.32;;;4.35;;
31306;SDS011;17935;51.120;13.132;2023-07-22T17:56:24;6.38;;;4.20;;
31306;SDS011;17935;51.120;13.132;2023-07-22T17:58:50;4.53;;;4.10;;
31306;SDS011;17935;51.120;13.132;2023-07-22T18:01:16;4.63;;;4.00;;
31306;SDS011;17935;51.120;13.132;2023-07-22T18:03:43;4.50;;;4.00;;
31306;SDS011;17935;51.120;13.132;2023-07-22T18:06:09;7.90;;;4.10;;
31306;SDS011;17935;51.120;13.132;2023-07-22T18:08:35;4.50;;;4.07;;
31306;SDS011;17935;51.120;13.132;2023-07-22T18:11:00;6.18;;;4.85;;
31306;SDS011;17935;51.120;13.132;2023-07-22T18:13:27;9.55;;;4.85;;
31306;SDS011;17935;51.120;13.132;2023-07-22T18:15:53;7.20;;;5.18;;
31306;SDS011;17935;51.120;13.132;2023-07-22T18:23:40;81.47;;;58.55;;
31306;SDS011;17935;51.120;13.132;2023-07-22T18:26:06;106.00;;;75.75;;
31306;SDS011;17935;51.120;13.132;2023-07-22T18:28:32;25.75;;;19.55;;
31306;SDS011;17935;51.120;13.132;2023-07-22T18:30:58;18.02;;;14.43;;
31306;SDS011;17935;51.120;13.132;2023-07-22T18:33:24;14.18;;;11.27;;
31306;SDS011;17935;51.120;13.132;2023-07-22T18:35:50;13.70;;;9.88;;
31306;SDS011;17935;51.120;13.132;2023-07-22T18:38:16;13.82;;;8.05;;
31306;SDS011;17935;51.120;13.132;2023-07-22T18:40:43;9.80;;;6.95;;
31306;SDS011;17935;51.120;13.132;2023-07-22T18:43:09;9.52;;;5.93;;
31306;SDS011;17935;51.120;13.132;2023-07-22T18:45:35;8.77;;;5.45;;
31306;SDS011;17935;51.120;13.132;2023-07-22T18:48:01;7.28;;;5.90;;
31306;SDS011;17935;51.120;13.132;2023-07-22T18:50:27;7.10;;;5.20;;
31306;SDS011;17935;51.120;13.132;2023-07-22T18:52:54;8.10;;;6.00;;
31306;SDS011;17935;51.120;13.132;2023-07-22T18:55:21;9.43;;;5.57;;
31306;SDS011;17935;51.120;13.132;2023-07-22T19:18:34;8.35;;;6.05;;
31306;SDS011;17935;51.120;13.132;2023-07-22T19:21:00;7.60;;;5.72;;
31306;SDS011;17935;51.120;13.132;2023-07-22T19:23:27;7.07;;;5.50;;
31306;SDS011;17935;51.120;13.132;2023-07-22T19:25:54;8.60;;;5.07;;
31306;SDS011;17935;51.120;13.132;2023-07-22T19:28:20;9.77;;;5.47;;
31306;SDS011;17935;51.120;13.132;2023-07-22T19:30:46;5.90;;;5.18;;
31306;SDS011;17935;51.120;13.132;2023-07-22T19:33:12;7.32;;;5.70;;
31306;SDS011;17935;51.120;13.132;2023-07-22T19:35:38;15.32;;;5.72;;
31306;SDS011;17935;51.120;13.132;2023-07-22T19:38:04;6.97;;;4.95;;
31306;SDS011;17935;51.120;13.132;2023-07-22T19:40:30;8.18;;;4.90;;
31306;SDS011;17935;51.120;13.132;2023-07-22T19:42:56;8.32;;;5.47;;
31306;SDS011;17935;51.120;13.132;2023-07-22T19:45:22;6.30;;;5.07;;
31306;SDS011;17935;51.120;13.132;2023-07-22T19:47:49;9.00;;;5.30;;
31306;SDS011;17935;51.120;13.132;2023-07-22T19:50:15;8.27;;;5.13;;
31306;SDS011;17935;51.120;13.132;2023-07-22T19:52:41;8.63;;;5.43;;
31306;SDS011;17935;51.120;13.132;2023-07-22T19:55:07;6.07;;;4.80;;
31306;SDS011;17935;51.120;13.132;2023-07-22T19:57:34;10.82;;;5.32;;
31306;SDS011;17935;51.120;13.132;2023-07-22T20:00:00;6.72;;;4.88;;
31306;SDS011;17935;51.120;13.132;2023-07-22T20:02:26;10.65;;;5.00;;
31306;SDS011;17935;51.120;13.132;2023-07-22T20:04:52;7.70;;;6.22;;
31306;SDS011;17935;51.120;13.132;2023-07-22T20:07:18;11.73;;;5.50;;
31306;SDS011;17935;51.120;13.132;2023-07-22T20:09:44;7.38;;;5.68;;
31306;SDS011;17935;51.120;13.132;2023-07-22T20:12:10;8.55;;;5.65;;
31306;SDS011;17935;51.120;13.132;2023-07-22T20:14:36;6.55;;;5.43;;
31306;SDS011;17935;51.120;13.132;2023-07-22T20:17:02;9.23;;;5.82;;
31306;SDS011;17935;51.120;13.132;2023-07-22T20:19:28;6.85;;;5.43;;
31306;SDS011;17935;51.120;13.132;2023-07-22T20:21:55;11.00;;;6.22;;
31306;SDS011;17935;51.120;13.132;2023-07-22T20:24:22;10.43;;;6.22;;
31306;SDS011;17935;51.120;13.132;2023-07-22T20:26:48;10.10;;;6.60;;
31306;SDS011;17935;51.120;13.132;2023-07-22T20:29:14;7.90;;;6.43;;
31306;SDS011;17935;51.120;13.132;2023-07-22T20:31:40;9.82;;;6.22;;
31306;SDS011;17935;51.120;13.132;2023-07-22T20:34:06;15.95;;;8.63;;
31306;SDS011;17935;51.120;13.132;2023-07-22T20:36:32;12.45;;;7.35;;
31306;SDS011;17935;51.120;13.132;2023-07-22T20:38:58;8.93;;;6.43;;
31306;SDS011;17935;51.120;13.132;2023-07-22T20:41:24;8.75;;;5.65;;
31306;SDS011;17935;51.120;13.132;2023-07-22T20:43:51;8.50;;;6.30;;
31306;SDS011;17935;51.120;13.132;2023-07-22T20:46:17;10.63;;;6.57;;
31306;SDS011;17935;51.120;13.132;2023-07-22T20:48:43;8.85;;;6.53;;
31306;SDS011;17935;51.120;13.132;2023-07-22T20:51:09;9.02;;;6.30;;
31306;SDS011;17935;51.120;13.132;2023-07-22T20:53:38;10.25;;;6.97;;
31306;SDS011;17935;51.120;13.132;2023-07-22T20:56:04;10.70;;;6.43;;
31306;SDS011;17935;51.120;13.132;2023-07-22T20:58:31;13.68;;;7.10;;
31306;SDS011;17935;51.120;13.132;2023-07-22T21:00:58;9.70;;;6.55;;
31306;SDS011;17935;51.120;13.132;2023-07-22T21:03:25;10.80;;;6.72;;
31306;SDS011;17935;51.120;13.132;2023-07-22T21:05:54;10.35;;;6.78;;
31306;SDS011;17935;51.120;13.132;2023-07-22T21:08:20;9.55;;;6.72;;
31306;SDS011;17935;51.120;13.132;2023-07-22T21:10:47;11.20;;;6.65;;
31306;SDS011;17935;51.120;13.132;2023-07-22T21:13:14;8.77;;;6.53;;
31306;SDS011;17935;51.120;13.132;2023-07-22T21:15:40;9.77;;;7.03;;
31306;SDS011;17935;51.120;13.132;2023-07-22T21:18:06;9.23;;;6.70;;
31306;SDS011;17935;51.120;13.132;2023-07-22T21:20:32;11.35;;;6.90;;
31306;SDS011;17935;51.120;13.132;2023-07-22T21:22:58;8.52;;;6.05;;
31306;SDS011;17935;51.120;13.132;2023-07-22T21:25:24;9.55;;;6.68;;
31306;SDS011;17935;51.120;13.132;2023-07-22T21:27:50;10.55;;;7.22;;
31306;SDS011;17935;51.120;13.132;2023-07-22T21:30:16;12.77;;;7.55;;
31306;SDS011;17935;51.120;13.132;2023-07-22T21:32:44;9.98;;;6.53;;
31306;SDS011;17935;51.120;13.132;2023-07-22T21:35:10;9.25;;;6.65;;
31306;SDS011;17935;51.120;13.132;2023-07-22T21:37:36;11.65;;;6.78;;
31306;SDS011;17935;51.120;13.132;2023-07-22T21:40:03;12.05;;;7.63;;
31306;SDS011;17935;51.120;13.132;2023-07-22T21:42:29;10.48;;;7.25;;
31306;SDS011;17935;51.120;13.132;2023-07-22T21:44:56;15.15;;;9.18;;
31306;SDS011;17935;51.120;13.132;2023-07-22T21:47:22;17.38;;;12.15;;
31306;SDS011;17935;51.120;13.132;2023-07-22T21:49:48;13.10;;;8.23;;
31306;SDS011;17935;51.120;13.132;2023-07-22T21:52:14;12.55;;;7.10;;
31306;SDS011;17935;51.120;13.132;2023-07-22T21:54:41;14.35;;;7.13;;
31306;SDS011;17935;51.120;13.132;2023-07-22T21:57:07;10.52;;;7.80;;
31306;SDS011;17935;51.120;13.132;2023-07-22T21:59:33;10.30;;;7.13;;
31306;SDS011;17935;51.120;13.132;2023-07-22T22:01:59;11.45;;;7.43;;
31306;SDS011;17935;51.120;13.132;2023-07-22T22:04:25;11.15;;;7.70;;
31306;SDS011;17935;51.120;13.132;2023-07-22T22:06:52;12.65;;;7.18;;
31306;SDS011;17935;51.120;13.132;2023-07-22T22:09:18;18.08;;;6.88;;
31306;SDS011;17935;51.120;13.132;2023-07-22T22:11:44;11.85;;;7.03;;
31306;SDS011;17935;51.120;13.132;2023-07-22T22:14:10;10.68;;;7.03;;
31306;SDS011;17935;51.120;13.132;2023-07-22T22:16:36;11.32;;;7.53;;
31306;SDS011;17935;51.120;13.132;2023-07-22T22:19:02;14.27;;;7.90;;